createdAt,value
2022-12-14T00:02:08.199Z,44.28
2022-12-14T00:04:56.945Z,44.12
2022-12-14T00:07:45.812Z,44.01
2022-12-14T00:10:39.047Z,45.23
2022-12-14T00:13:27.688Z,45.30
2022-12-14T00:16:19.341Z,45.27
2022-12-14T00:19:08.072Z,45.32
2022-12-14T00:21:56.649Z,45.62
2022-12-14T00:24:45.309Z,45.74
2022-12-14T00:27:34.068Z,46.01
2022-12-14T00:30:22.796Z,46.56
2022-12-14T00:33:12.743Z,46.65
2022-12-14T00:36:01.511Z,46.35
2022-12-14T00:38:50.120Z,46.40
2022-12-14T00:41:38.795Z,46.44
2022-12-14T00:44:27.436Z,46.58
2022-12-14T00:47:16.019Z,46.41
2022-12-14T00:50:06.612Z,46.68
2022-12-14T00:52:55.268Z,46.90
2022-12-14T00:55:49.391Z,46.62
2022-12-14T00:58:38.293Z,46.75
2022-12-14T01:01:26.999Z,46.58
2022-12-14T01:04:19.459Z,46.62
2022-12-14T01:07:09.505Z,46.72
2022-12-14T01:09:58.138Z,47.02
2022-12-14T01:12:46.752Z,47.04
2022-12-14T01:15:37.123Z,46.93
2022-12-14T01:18:25.874Z,46.94
2022-12-14T01:21:16.361Z,47.06
2022-12-14T01:24:07.060Z,47.22
2022-12-14T01:26:55.741Z,47.18
2022-12-14T01:29:44.724Z,46.94
2022-12-14T01:32:33.308Z,46.80
2022-12-14T01:35:21.993Z,47.19
2022-12-14T01:38:10.547Z,47.13
2022-12-14T01:41:00.614Z,47.10
2022-12-14T01:43:51.424Z,47.26
2022-12-14T01:46:43.864Z,47.05
2022-12-14T01:49:36.595Z,46.78
2022-12-14T01:52:28.362Z,46.94
2022-12-14T01:55:19.674Z,47.10
2022-12-14T01:58:13.512Z,47.22
2022-12-14T02:01:03.014Z,46.87
2022-12-14T02:03:53.513Z,47.26
2022-12-14T02:06:44.057Z,47.06
2022-12-14T02:09:35.393Z,47.13
2022-12-14T02:12:29.276Z,47.04
2022-12-14T02:15:19.707Z,47.29
2022-12-14T02:18:12.962Z,47.08
2022-12-14T02:21:17.829Z,47.30
2022-12-14T02:24:29.409Z,47.20
2022-12-14T02:27:29.105Z,47.39
2022-12-14T02:30:20.301Z,47.34
2022-12-14T02:33:29.902Z,47.49
2022-12-14T02:36:22.825Z,47.48
2022-12-14T02:39:17.659Z,47.89
2022-12-14T02:42:10.115Z,47.42
2022-12-14T02:45:04.567Z,47.68
2022-12-14T02:47:57.852Z,47.54
2022-12-14T02:50:53.163Z,47.64
2022-12-14T02:53:45.576Z,47.65
2022-12-14T02:56:38.735Z,47.57
2022-12-14T02:59:27.762Z,47.70
2022-12-14T03:02:16.480Z,47.55
2022-12-14T03:05:07.407Z,47.76
2022-12-14T03:07:57.843Z,47.50
2022-12-14T03:10:50.084Z,47.65
2022-12-14T03:13:40.987Z,47.65
2022-12-14T03:16:33.986Z,47.82
2022-12-14T03:19:25.495Z,47.50
2022-12-14T03:22:20.141Z,47.67
2022-12-14T03:25:12.227Z,47.74
2022-12-14T03:28:04.349Z,47.61
2022-12-14T03:31:00.552Z,47.84
2022-12-14T03:33:50.703Z,47.74
2022-12-14T03:36:43.261Z,47.64
2022-12-14T03:39:35.370Z,47.73
2022-12-14T03:42:26.215Z,47.68
2022-12-14T03:45:20.130Z,47.85
2022-12-14T03:48:15.486Z,48.02
2022-12-14T03:51:10.421Z,47.73
2022-12-14T03:54:05.832Z,47.87
2022-12-14T03:56:57.998Z,47.76
2022-12-14T03:59:51.118Z,47.88
2022-12-14T04:02:43.435Z,47.66
2022-12-14T04:05:36.091Z,47.81
2022-12-14T04:08:29.642Z,47.92
2022-12-14T04:11:36.226Z,48.06
2022-12-14T04:14:48.271Z,47.94
2022-12-14T04:17:56.113Z,47.79
2022-12-14T04:20:47.998Z,47.97
2022-12-14T04:23:58.193Z,47.86
2022-12-14T04:26:52.370Z,48.12
2022-12-14T04:29:58.168Z,48.03
2022-12-14T04:32:49.799Z,48.02
2022-12-14T04:35:40.593Z,48.04
2022-12-14T04:38:36.697Z,48.01
2022-12-14T04:41:27.722Z,47.85
2022-12-14T04:44:19.377Z,47.93
2022-12-14T04:47:11.466Z,47.81
2022-12-14T04:50:03.282Z,48.00
2022-12-14T04:52:54.875Z,48.10
2022-12-14T04:55:47.769Z,47.69
2022-12-14T04:58:38.348Z,47.83
2022-12-14T05:01:37.190Z,47.78
2022-12-14T05:04:36.299Z,47.93
2022-12-14T05:07:38.076Z,47.74
2022-12-14T05:10:32.642Z,47.93
2022-12-14T05:13:24.713Z,48.09
2022-12-14T05:16:13.744Z,47.94
2022-12-14T05:19:02.434Z,48.04
2022-12-14T05:21:52.364Z,48.04
2022-12-14T05:24:41.061Z,40.48
2022-12-14T05:27:29.605Z,32.41
2022-12-14T05:30:18.574Z,33.35
2022-12-14T05:33:07.451Z,36.29
2022-12-14T05:35:56.087Z,38.41
2022-12-14T05:38:46.051Z,38.79
2022-12-14T05:41:34.633Z,39.76
2022-12-14T05:44:23.282Z,40.25
2022-12-14T05:47:11.887Z,41.00
2022-12-14T05:50:00.646Z,41.72
2022-12-14T05:52:49.268Z,42.60
2022-12-14T05:55:39.167Z,42.68
2022-12-14T05:58:27.831Z,42.71
2022-12-14T06:01:19.350Z,43.13
2022-12-14T06:04:08.447Z,43.54
2022-12-14T06:06:57.157Z,43.60
2022-12-14T06:09:45.772Z,43.91
2022-12-14T06:12:35.777Z,43.99
2022-12-14T06:15:27.195Z,44.12
2022-12-14T06:18:18.853Z,44.28
2022-12-14T06:21:07.548Z,44.38
2022-12-14T06:23:56.784Z,44.60
2022-12-14T06:26:45.682Z,44.40
2022-12-14T06:29:35.619Z,44.65
2022-12-14T06:32:24.724Z,44.79
2022-12-14T06:35:13.549Z,44.75
2022-12-14T06:38:02.117Z,44.96
2022-12-14T06:40:50.721Z,45.17
2022-12-14T06:43:39.348Z,45.21
2022-12-14T06:46:29.319Z,45.34
2022-12-14T06:49:17.951Z,45.35
2022-12-14T06:52:06.987Z,45.46
2022-12-14T06:54:55.986Z,45.48
2022-12-14T06:57:44.639Z,45.75
2022-12-14T07:00:33.309Z,45.84
2022-12-14T07:03:23.293Z,45.76
2022-12-14T07:06:12.120Z,45.83
2022-12-14T07:09:04.450Z,45.98
2022-12-14T07:11:53.022Z,45.91
2022-12-14T07:14:41.637Z,45.75
2022-12-14T07:17:30.313Z,45.93
2022-12-14T07:20:20.518Z,45.99
2022-12-14T07:23:09.154Z,46.16
2022-12-14T07:26:03.350Z,46.27
2022-12-14T07:28:52.990Z,46.20
2022-12-14T07:31:41.560Z,46.20
2022-12-14T07:34:30.232Z,46.31
2022-12-14T07:37:20.557Z,46.16
2022-12-14T07:40:10.969Z,46.60
2022-12-14T07:42:59.699Z,46.42
2022-12-14T07:45:48.388Z,46.45
2022-12-14T07:48:37.416Z,46.47
2022-12-14T07:51:27.934Z,46.40
2022-12-14T07:54:18.110Z,46.60
2022-12-14T07:57:06.645Z,46.74
2022-12-14T07:59:57.563Z,46.74
2022-12-14T08:02:46.580Z,46.79
2022-12-14T08:05:35.408Z,46.59
2022-12-14T08:08:24.018Z,46.35
2022-12-14T08:11:15.042Z,45.66
2022-12-14T08:14:05.758Z,44.97
2022-12-14T08:16:54.523Z,44.78
2022-12-14T08:19:43.363Z,44.13
2022-12-14T08:22:32.048Z,44.56
2022-12-14T08:25:21.083Z,45.59
2022-12-14T08:28:11.525Z,46.09
2022-12-14T08:31:05.683Z,45.89
2022-12-14T08:33:54.388Z,45.88
2022-12-14T08:36:43.030Z,46.14
2022-12-14T08:39:31.574Z,46.11
2022-12-14T08:42:20.331Z,46.00
2022-12-14T08:45:11.225Z,45.94
2022-12-14T08:48:00.227Z,46.21
2022-12-14T08:50:49.970Z,46.32
2022-12-14T08:53:39.600Z,46.39
2022-12-14T08:56:29.333Z,46.06
2022-12-14T08:59:43.907Z,46.09
2022-12-14T09:02:28.029Z,46.15
2022-12-14T09:05:17.002Z,46.28
2022-12-14T09:08:06.042Z,46.14
2022-12-14T09:10:54.701Z,46.02
2022-12-14T09:13:43.986Z,46.32
2022-12-14T09:16:32.706Z,46.11
2022-12-14T09:19:22.877Z,46.31
2022-12-14T09:22:13.320Z,45.98
2022-12-14T09:25:01.963Z,46.01
2022-12-14T09:27:50.956Z,46.31
2022-12-14T09:30:39.673Z,45.97
2022-12-14T09:33:29.974Z,46.25
2022-12-14T09:36:22.008Z,46.18
2022-12-14T09:39:14.638Z,46.33
2022-12-14T09:42:11.422Z,46.10
2022-12-14T09:45:04.045Z,46.12
2022-12-14T09:47:58.091Z,46.38
2022-12-14T09:50:48.047Z,46.67
2022-12-14T09:53:41.223Z,46.11
2022-12-14T09:56:29.900Z,46.43
2022-12-14T09:59:20.815Z,46.40
2022-12-14T10:02:41.490Z,46.42
2022-12-14T10:05:43.329Z,46.44
2022-12-14T10:08:36.397Z,46.71
2022-12-14T10:11:33.789Z,46.61
2022-12-14T10:14:25.452Z,46.89
2022-12-14T10:17:23.805Z,46.72
2022-12-14T10:20:18.516Z,46.70
2022-12-14T10:23:09.726Z,46.58
2022-12-14T10:26:03.533Z,46.87
2022-12-14T10:29:01.257Z,47.02
2022-12-14T10:31:59.515Z,47.03
2022-12-14T10:34:48.411Z,47.04
2022-12-14T10:37:40.508Z,46.99
2022-12-14T10:40:34.144Z,47.29
2022-12-14T10:43:34.000Z,47.17
2022-12-14T10:46:31.411Z,47.14
2022-12-14T10:49:26.057Z,47.11
2022-12-14T10:52:18.666Z,47.19
2022-12-14T10:55:14.765Z,47.21
2022-12-14T10:58:03.626Z,47.35
2022-12-14T11:00:55.190Z,47.11
2022-12-14T11:03:48.442Z,47.00
2022-12-14T11:06:37.133Z,46.97
2022-12-14T11:09:26.432Z,47.27
2022-12-14T11:12:23.980Z,47.21
2022-12-14T11:15:24.916Z,46.93
2022-12-14T11:18:25.673Z,46.76
2022-12-14T11:21:17.331Z,46.93
2022-12-14T11:24:06.895Z,47.09
2022-12-14T11:26:57.458Z,46.90
2022-12-14T11:29:47.644Z,46.99
2022-12-14T11:32:36.329Z,46.87
2022-12-14T11:35:25.614Z,46.88
2022-12-14T11:38:16.420Z,46.99
2022-12-14T11:41:11.525Z,46.98
2022-12-14T11:44:08.435Z,46.92
2022-12-14T11:47:04.716Z,46.91
2022-12-14T11:49:55.313Z,46.62
2022-12-14T11:52:44.198Z,46.96
2022-12-14T11:55:35.573Z,46.57
2022-12-14T11:58:25.737Z,47.02
2022-12-14T12:01:16.610Z,47.02
2022-12-14T12:04:07.108Z,46.58
2022-12-14T12:07:00.110Z,46.81
2022-12-14T12:09:51.771Z,46.86
2022-12-14T12:12:54.573Z,47.02
2022-12-14T12:15:49.890Z,47.01
2022-12-14T12:18:46.202Z,47.03
2022-12-14T12:21:37.688Z,47.08
2022-12-14T12:24:32.005Z,47.12
2022-12-14T12:27:23.794Z,47.04
2022-12-14T12:30:22.348Z,47.22
2022-12-14T12:33:23.088Z,47.10
2022-12-14T12:36:11.876Z,46.72
2022-12-14T12:39:05.989Z,47.13
2022-12-14T12:42:05.243Z,47.08
2022-12-14T12:45:00.048Z,46.89
2022-12-14T12:47:51.905Z,46.80
2022-12-14T12:50:44.369Z,47.01
2022-12-14T12:53:41.455Z,46.77
2022-12-14T12:56:36.658Z,46.71
2022-12-14T12:59:37.327Z,46.46
2022-12-14T13:02:32.136Z,46.62
2022-12-14T13:08:37.439Z,46.62
2022-12-14T13:11:30.914Z,46.76
2022-12-14T13:14:23.255Z,46.60
2022-12-14T13:17:25.324Z,46.85
2022-12-14T13:20:22.941Z,46.68
2022-12-14T13:23:43.082Z,46.68
2022-12-14T13:26:56.841Z,46.76
2022-12-14T13:29:50.187Z,46.80
2022-12-14T13:32:48.946Z,46.97
2022-12-14T13:35:49.478Z,46.73
2022-12-14T13:39:08.613Z,46.61
2022-12-14T13:42:02.629Z,46.92
2022-12-14T13:44:57.781Z,46.95
2022-12-14T13:47:51.445Z,46.79
2022-12-14T13:50:52.991Z,46.71
2022-12-14T13:53:54.864Z,46.96
2022-12-14T13:56:43.525Z,46.94
2022-12-14T13:59:34.857Z,46.94
2022-12-14T14:02:41.626Z,46.57
2022-12-14T14:05:46.857Z,47.00
2022-12-14T14:08:41.667Z,46.85
2022-12-14T14:11:47.135Z,46.85
2022-12-14T14:14:45.525Z,46.75
2022-12-14T14:17:39.874Z,46.76
2022-12-14T14:20:40.984Z,46.73
2022-12-14T14:23:33.384Z,46.97
2022-12-14T14:26:30.110Z,46.91
2022-12-14T14:29:27.715Z,46.96
2022-12-14T14:32:46.988Z,47.06
2022-12-14T14:35:37.460Z,46.69
2022-12-14T14:38:29.324Z,46.35
2022-12-14T14:41:26.392Z,45.02
2022-12-14T14:44:23.037Z,45.30
2022-12-14T14:47:17.526Z,44.79
2022-12-14T14:50:09.275Z,44.69
2022-12-14T14:53:17.783Z,44.25
2022-12-14T14:56:44.887Z,44.02
2022-12-14T14:59:50.577Z,40.83
2022-12-14T15:02:42.594Z,41.79
2022-12-14T15:05:43.273Z,42.25
2022-12-14T15:08:35.394Z,43.57
2022-12-14T15:11:25.289Z,43.99
2022-12-14T15:14:27.192Z,44.53
2022-12-14T15:17:22.965Z,44.42
2022-12-14T15:20:22.355Z,44.90
2022-12-14T15:23:16.256Z,44.88
2022-12-14T15:26:09.162Z,44.96
2022-12-14T15:29:04.548Z,45.11
2022-12-14T15:31:59.633Z,45.29
2022-12-14T15:34:54.970Z,45.27
2022-12-14T15:37:46.613Z,46.18
2022-12-14T15:40:35.732Z,45.87
2022-12-14T15:43:25.879Z,45.95
2022-12-14T15:46:18.604Z,45.89
2022-12-14T15:49:09.164Z,45.20
2022-12-14T15:52:00.811Z,45.48
2022-12-14T15:54:49.736Z,45.56
2022-12-14T15:57:40.289Z,45.30
2022-12-14T16:00:29.451Z,44.90
2022-12-14T16:03:24.922Z,44.85
2022-12-14T16:06:14.374Z,44.81
2022-12-14T16:09:07.884Z,44.68
2022-12-14T16:11:57.895Z,44.93
2022-12-14T16:14:48.466Z,45.18
2022-12-14T16:17:38.236Z,45.09
2022-12-14T16:20:29.540Z,45.10
2022-12-14T16:23:29.784Z,45.03
2022-12-14T16:26:25.830Z,45.14
2022-12-14T16:29:22.907Z,44.97
2022-12-14T16:32:17.130Z,45.50
2022-12-14T16:35:06.320Z,45.57
2022-12-14T16:37:56.505Z,45.74
2022-12-14T16:40:54.898Z,45.23
2022-12-14T16:43:57.708Z,44.56
2022-12-14T16:46:57.409Z,44.42
2022-12-14T16:49:56.323Z,44.11
2022-12-14T16:52:45.043Z,44.49
2022-12-14T16:55:33.781Z,44.33
2022-12-14T16:58:22.486Z,44.77
2022-12-14T17:01:12.727Z,44.67
2022-12-14T17:04:04.217Z,44.89
2022-12-14T17:06:57.261Z,45.04
2022-12-14T17:09:45.887Z,45.48
2022-12-14T17:12:34.698Z,45.70
2022-12-14T17:15:24.866Z,45.55
2022-12-14T17:18:14.853Z,45.99
2022-12-14T17:21:03.901Z,45.79
2022-12-14T17:23:52.775Z,46.04
2022-12-14T17:26:41.466Z,46.18
2022-12-14T17:29:33.211Z,45.71
2022-12-14T17:32:21.879Z,45.97
2022-12-14T17:35:17.741Z,45.75
2022-12-14T17:38:10.919Z,45.96
2022-12-14T17:40:59.647Z,45.69
2022-12-14T17:43:52.468Z,45.88
2022-12-14T17:46:45.182Z,46.27
2022-12-14T17:49:37.113Z,45.83
2022-12-14T17:52:32.002Z,46.65
2022-12-14T17:55:22.743Z,46.73
2022-12-14T17:58:11.952Z,46.12
2022-12-14T18:01:04.619Z,45.52
2022-12-14T18:03:53.647Z,45.63
2022-12-14T18:06:42.410Z,45.63
2022-12-14T18:09:35.882Z,45.59
2022-12-14T18:12:25.848Z,45.68
2022-12-14T18:15:18.959Z,46.16
2022-12-14T18:18:07.802Z,46.26
2022-12-14T18:20:58.597Z,46.05
2022-12-14T18:23:49.634Z,46.06
2022-12-14T18:26:40.581Z,46.85
2022-12-14T18:29:29.244Z,46.65
2022-12-14T18:32:17.879Z,45.92
2022-12-14T18:35:07.363Z,45.72
2022-12-14T18:37:56.024Z,45.64
2022-12-14T18:40:49.770Z,45.08
2022-12-14T18:43:43.657Z,45.22
2022-12-14T18:46:32.891Z,44.94
2022-12-14T18:49:21.621Z,45.29
2022-12-14T18:52:11.746Z,45.11
2022-12-14T18:55:00.432Z,44.89
2022-12-14T18:57:51.532Z,44.64
2022-12-14T19:00:41.567Z,44.66
2022-12-14T19:03:34.067Z,45.29
2022-12-14T19:09:34.630Z,44.95
2022-12-14T19:12:23.310Z,45.37
2022-12-14T19:15:15.888Z,45.53
2022-12-14T19:18:05.967Z,45.31
2022-12-14T19:20:54.578Z,45.58
2022-12-14T19:23:43.212Z,45.28
2022-12-14T19:26:32.204Z,45.10
2022-12-14T19:29:21.582Z,45.39
2022-12-14T19:32:11.578Z,44.74
2022-12-14T19:35:01.716Z,44.38
2022-12-14T19:37:50.719Z,44.78
2022-12-14T19:40:39.652Z,44.33
2022-12-14T19:43:28.766Z,44.28
2022-12-14T19:46:18.450Z,44.20
2022-12-14T19:49:09.416Z,44.31
2022-12-14T19:51:59.683Z,44.37
2022-12-14T19:54:48.357Z,44.81
2022-12-14T19:57:37.238Z,44.37
2022-12-14T20:00:25.825Z,44.92
2022-12-14T20:03:14.703Z,44.66
2022-12-14T20:06:05.997Z,44.87
2022-12-14T20:08:59.726Z,44.34
2022-12-14T20:11:48.437Z,45.15
2022-12-14T20:14:39.757Z,44.83
2022-12-14T20:17:28.535Z,45.19
2022-12-14T20:20:17.287Z,45.70
2022-12-14T20:23:06.050Z,46.24
2022-12-14T20:26:01.575Z,46.20
2022-12-14T20:28:50.833Z,46.35
2022-12-14T20:31:39.698Z,46.21
2022-12-14T20:34:29.055Z,46.69
2022-12-14T20:37:20.821Z,46.82
2022-12-14T20:40:11.114Z,47.02
2022-12-14T20:43:01.103Z,46.14
2022-12-14T20:45:49.737Z,45.96
2022-12-14T20:48:38.504Z,45.89
2022-12-14T20:51:27.219Z,45.53
2022-12-14T20:54:18.203Z,46.01
2022-12-14T20:57:06.830Z,45.93
2022-12-14T20:59:59.403Z,45.64
2022-12-14T21:02:48.282Z,46.37
2022-12-14T21:05:41.700Z,46.68
2022-12-14T21:08:31.653Z,46.76
2022-12-14T21:11:37.906Z,46.82
2022-12-14T21:14:27.876Z,45.87
2022-12-14T21:17:17.896Z,46.50
2022-12-14T21:20:07.657Z,46.95
2022-12-14T21:22:56.363Z,46.64
2022-12-14T21:25:45.098Z,47.66
2022-12-14T21:28:34.162Z,47.63
2022-12-14T21:31:23.329Z,47.12
2022-12-14T21:34:15.539Z,46.94
2022-12-14T21:37:04.645Z,47.02
2022-12-14T21:39:54.498Z,46.80
2022-12-14T21:42:42.938Z,46.42
2022-12-14T21:45:31.700Z,46.28
2022-12-14T21:48:20.437Z,47.10
2022-12-14T21:51:11.479Z,47.62
2022-12-14T21:54:00.092Z,47.55
2022-12-14T21:57:06.339Z,47.61
2022-12-14T21:59:55.928Z,47.13
2022-12-14T22:02:44.766Z,47.26
2022-12-14T22:05:33.546Z,46.98
2022-12-14T22:08:23.570Z,47.43
2022-12-14T22:11:12.308Z,48.00
2022-12-14T22:14:02.336Z,47.80
2022-12-14T22:16:51.468Z,47.93
2022-12-14T22:19:40.295Z,48.11
2022-12-14T22:22:28.990Z,48.40
2022-12-14T22:25:19.038Z,48.59
2022-12-14T22:28:07.783Z,48.47
2022-12-14T22:30:56.528Z,48.03
2022-12-14T22:33:45.832Z,47.84
2022-12-14T22:36:38.457Z,47.69
2022-12-14T22:39:27.327Z,48.05
2022-12-14T22:42:17.620Z,47.82
2022-12-14T22:45:07.096Z,48.17
2022-12-14T22:47:55.790Z,48.28
2022-12-14T22:50:44.462Z,48.05
2022-12-14T22:53:33.491Z,48.17
2022-12-14T22:56:24.277Z,48.06
2022-12-14T22:59:16.341Z,48.00
2022-12-14T23:02:05.368Z,48.07
2022-12-14T23:04:54.108Z,47.91
2022-12-14T23:07:43.429Z,48.22
2022-12-14T23:10:50.067Z,47.86
2022-12-14T23:13:56.562Z,48.10
2022-12-14T23:17:03.967Z,48.16
2022-12-14T23:20:10.726Z,48.19
2022-12-14T23:23:16.827Z,47.88
2022-12-14T23:26:23.970Z,48.05
2022-12-14T23:29:30.276Z,47.96
2022-12-14T23:32:37.831Z,47.82
2022-12-14T23:35:43.801Z,47.87
2022-12-14T23:38:50.001Z,47.92
2022-12-14T23:41:56.346Z,48.09
2022-12-14T23:45:02.464Z,48.20
2022-12-14T23:48:10.076Z,48.07
2022-12-14T23:51:16.174Z,48.56
2022-12-14T23:54:22.349Z,48.81
2022-12-14T23:57:28.702Z,48.61
